Terminal Aerodrome Forecast
Issued by NWS

Home | Current Version | Previous Version | Text Only | Print | Product List | Glossary On
Versions: 1 2 3 4 5 6 7 8 9 10 11 12 13
276
FTUS42 KMLB 301733
TAFISM
TAF
KISM 301733Z 3018/3118 16005KT P6SM VCTS SCT040CB SCT250
      TEMPO 3019/3021 VRB15G25KT 3SM TSRA BKN030CB OVC050
     FM302200 12007KT P6SM VCTS SCT035CB SCT080 BKN250
     FM310100 13005KT P6SM FEW030 SCT100 BKN250
     FM310600 15003KT P6SM SCT250
     FM311500 16005KT P6SM SCT030 SCT050=

USA.gov is the U.S. government's official web portal to all federal, state and local government web resources and services.